sensor_id;sensor_type;location;lat;lon;timestamp;P1;P2;P0
63662;PMS5003;49815;51.618;0.336;2022-08-05T00:02:22;2;2;
63662;PMS5003;49815;51.618;0.336;2022-08-05T00:04:48;3;2;
63662;PMS5003;49815;51.618;0.336;2022-08-05T00:07:13;1;0;
63662;PMS5003;49815;51.618;0.336;2022-08-05T00:09:38;3;2;
63662;PMS5003;49815;51.618;0.336;2022-08-05T00:12:04;4;2;
63662;PMS5003;49815;51.618;0.336;2022-08-05T00:14:29;3;2;
63662;PMS5003;49815;51.618;0.336;2022-08-05T00:16:54;2;2;
63662;PMS5003;49815;51.618;0.336;2022-08-05T00:19:20;1;1;
63662;PMS5003;49815;51.618;0.336;2022-08-05T00:21:45;1;1;
63662;PMS5003;49815;51.618;0.336;2022-08-05T00:24:10;2;2;
63662;PMS5003;49815;51.618;0.336;2022-08-05T00:26:35;2;1;
63662;PMS5003;49815;51.618;0.336;2022-08-05T00:29:01;1;1;
63662;PMS5003;49815;51.618;0.336;2022-08-05T00:31:26;2;2;
63662;PMS5003;49815;51.618;0.336;2022-08-05T00:33:51;1;1;
63662;PMS5003;49815;51.618;0.336;2022-08-05T00:36:17;1;1;
63662;PMS5003;49815;51.618;0.336;2022-08-05T00:38:42;1;1;
63662;PMS5003;49815;51.618;0.336;2022-08-05T00:41:08;1;1;
63662;PMS5003;49815;51.618;0.336;2022-08-05T00:43:38;2;2;
63662;PMS5003;49815;51.618;0.336;2022-08-05T00:45:58;2;2;
63662;PMS5003;49815;51.618;0.336;2022-08-05T00:48:23;2;2;
63662;PMS5003;49815;51.618;0.336;2022-08-05T00:50:49;2;2;
63662;PMS5003;49815;51.618;0.336;2022-08-05T00:53:14;5;5;
63662;PMS5003;49815;51.618;0.336;2022-08-05T00:55:39;3;2;
63662;PMS5003;49815;51.618;0.336;2022-08-05T00:58:05;2;1;
63662;PMS5003;49815;51.618;0.336;2022-08-05T01:00:30;3;1;
63662;PMS5003;49815;51.618;0.336;2022-08-05T01:02:55;2;2;
63662;PMS5003;49815;51.618;0.336;2022-08-05T01:05:20;2;2;
63662;PMS5003;49815;51.618;0.336;2022-08-05T01:07:46;2;2;
63662;PMS5003;49815;51.618;0.336;2022-08-05T01:10:11;1;1;
63662;PMS5003;49815;51.618;0.336;2022-08-05T01:12:36;2;2;
63662;PMS5003;49815;51.618;0.336;2022-08-05T01:15:02;2;2;
63662;PMS5003;49815;51.618;0.336;2022-08-05T01:17:28;3;1;
63662;PMS5003;49815;51.618;0.336;2022-08-05T01:19:53;2;2;
63662;PMS5003;49815;51.618;0.336;2022-08-05T01:22:22;4;1;
63662;PMS5003;49815;51.618;0.336;2022-08-05T01:24:51;2;1;
63662;PMS5003;49815;51.618;0.336;2022-08-05T01:27:10;1;0;
63662;PMS5003;49815;51.618;0.336;2022-08-05T01:29:35;2;2;
63662;PMS5003;49815;51.618;0.336;2022-08-05T01:31:59;2;2;
63662;PMS5003;49815;51.618;0.336;2022-08-05T01:34:25;2;0;
63662;PMS5003;49815;51.618;0.336;2022-08-05T01:36:50;2;2;
63662;PMS5003;49815;51.618;0.336;2022-08-05T01:39:15;3;2;
63662;PMS5003;49815;51.618;0.336;2022-08-05T01:41:40;2;2;
63662;PMS5003;49815;51.618;0.336;2022-08-05T01:44:05;1;1;
63662;PMS5003;49815;51.618;0.336;2022-08-05T01:46:31;4;2;
63662;PMS5003;49815;51.618;0.336;2022-08-05T01:48:56;3;2;
63662;PMS5003;49815;51.618;0.336;2022-08-05T01:51:21;2;2;
63662;PMS5003;49815;51.618;0.336;2022-08-05T01:53:47;3;1;
63662;PMS5003;49815;51.618;0.336;2022-08-05T01:56:12;4;2;
63662;PMS5003;49815;51.618;0.336;2022-08-05T01:58:37;1;1;
63662;PMS5003;49815;51.618;0.336;2022-08-05T02:01:02;4;3;
63662;PMS5003;49815;51.618;0.336;2022-08-05T02:03:29;2;2;
63662;PMS5003;49815;51.618;0.336;2022-08-05T02:05:53;4;4;
63662;PMS5003;49815;51.618;0.336;2022-08-05T02:08:19;7;7;
63662;PMS5003;49815;51.618;0.336;2022-08-05T02:10:47;7;7;
63662;PMS5003;49815;51.618;0.336;2022-08-05T02:13:11;8;6;
63662;PMS5003;49815;51.618;0.336;2022-08-05T02:15:35;8;8;
63662;PMS5003;49815;51.618;0.336;2022-08-05T02:18:01;7;7;
63662;PMS5003;49815;51.618;0.336;2022-08-05T02:20:25;7;6;
63662;PMS5003;49815;51.618;0.336;2022-08-05T02:22:53;5;4;
63662;PMS5003;49815;51.618;0.336;2022-08-05T02:25:16;2;2;
63662;PMS5003;49815;51.618;0.336;2022-08-05T02:27:41;4;3;
63662;PMS5003;49815;51.618;0.336;2022-08-05T02:30:07;2;2;
63662;PMS5003;49815;51.618;0.336;2022-08-05T02:32:32;3;2;
63662;PMS5003;49815;51.618;0.336;2022-08-05T02:34:57;1;1;
63662;PMS5003;49815;51.618;0.336;2022-08-05T02:37:22;1;1;
63662;PMS5003;49815;51.618;0.336;2022-08-05T02:39:48;2;2;
63662;PMS5003;49815;51.618;0.336;2022-08-05T02:42:13;1;1;
63662;PMS5003;49815;51.618;0.336;2022-08-05T02:44:38;2;2;
63662;PMS5003;49815;51.618;0.336;2022-08-05T02:47:04;1;1;
63662;PMS5003;49815;51.618;0.336;2022-08-05T02:49:30;1;1;
63662;PMS5003;49815;51.618;0.336;2022-08-05T02:51:54;1;1;
63662;PMS5003;49815;51.618;0.336;2022-08-05T02:54:20;1;1;
63662;PMS5003;49815;51.618;0.336;2022-08-05T02:56:45;1;1;
63662;PMS5003;49815;51.618;0.336;2022-08-05T02:59:10;3;1;
63662;PMS5003;49815;51.618;0.336;2022-08-05T03:01:36;0;0;
63662;PMS5003;49815;51.618;0.336;2022-08-05T03:04:01;1;1;
63662;PMS5003;49815;51.618;0.336;2022-08-05T03:06:26;1;1;
63662;PMS5003;49815;51.618;0.336;2022-08-05T03:08:52;2;2;
63662;PMS5003;49815;51.618;0.336;2022-08-05T03:11:17;1;1;
63662;PMS5003;49815;51.618;0.336;2022-08-05T03:13:42;1;1;
63662;PMS5003;49815;51.618;0.336;2022-08-05T03:16:08;2;2;
63662;PMS5003;49815;51.618;0.336;2022-08-05T03:18:33;3;2;
63662;PMS5003;49815;51.618;0.336;2022-08-05T03:20:58;2;2;
63662;PMS5003;49815;51.618;0.336;2022-08-05T03:23:24;1;1;
63662;PMS5003;49815;51.618;0.336;2022-08-05T03:25:50;0;0;
63662;PMS5003;49815;51.618;0.336;2022-08-05T03:28:15;2;2;
63662;PMS5003;49815;51.618;0.336;2022-08-05T03:30:40;4;2;
63662;PMS5003;49815;51.618;0.336;2022-08-05T03:33:05;1;1;
63662;PMS5003;49815;51.618;0.336;2022-08-05T03:35:30;1;1;
63662;PMS5003;49815;51.618;0.336;2022-08-05T03:37:56;3;2;
63662;PMS5003;49815;51.618;0.336;2022-08-05T03:40:22;3;1;
63662;PMS5003;49815;51.618;0.336;2022-08-05T03:42:47;1;1;
63662;PMS5003;49815;51.618;0.336;2022-08-05T03:45:12;2;2;
63662;PMS5003;49815;51.618;0.336;2022-08-05T03:47:37;2;2;
63662;PMS5003;49815;51.618;0.336;2022-08-05T03:50:03;1;1;
63662;PMS5003;49815;51.618;0.336;2022-08-05T03:52:29;3;3;
63662;PMS5003;49815;51.618;0.336;2022-08-05T03:54:54;1;1;
63662;PMS5003;49815;51.618;0.336;2022-08-05T03:57:20;2;2;
63662;PMS5003;49815;51.618;0.336;2022-08-05T03:59:46;2;2;
63662;PMS5003;49815;51.618;0.336;2022-08-05T04:02:09;2;2;
63662;PMS5003;49815;51.618;0.336;2022-08-05T04:04:35;2;2;
63662;PMS5003;49815;51.618;0.336;2022-08-05T04:07:00;3;3;
63662;PMS5003;49815;51.618;0.336;2022-08-05T04:09:26;5;4;
63662;PMS5003;49815;51.618;0.336;2022-08-05T04:11:50;3;3;
63662;PMS5003;49815;51.618;0.336;2022-08-05T04:14:16;2;2;
63662;PMS5003;49815;51.618;0.336;2022-08-05T04:16:41;5;5;
63662;PMS5003;49815;51.618;0.336;2022-08-05T04:19:09;5;5;
63662;PMS5003;49815;51.618;0.336;2022-08-05T04:21:32;4;4;
63662;PMS5003;49815;51.618;0.336;2022-08-05T04:23:57;7;4;
63662;PMS5003;49815;51.618;0.336;2022-08-05T04:26:23;3;3;
63662;PMS5003;49815;51.618;0.336;2022-08-05T04:28:48;2;2;
63662;PMS5003;49815;51.618;0.336;2022-08-05T04:31:14;2;2;
63662;PMS5003;49815;51.618;0.336;2022-08-05T04:33:39;2;2;
63662;PMS5003;49815;51.618;0.336;2022-08-05T04:36:05;3;3;
63662;PMS5003;49815;51.618;0.336;2022-08-05T04:38:30;3;3;
63662;PMS5003;49815;51.618;0.336;2022-08-05T04:40:55;2;2;
63662;PMS5003;49815;51.618;0.336;2022-08-05T04:43:20;2;2;
63662;PMS5003;49815;51.618;0.336;2022-08-05T04:45:46;5;3;
63662;PMS5003;49815;51.618;0.336;2022-08-05T04:48:11;5;4;
63662;PMS5003;49815;51.618;0.336;2022-08-05T04:50:38;2;2;
63662;PMS5003;49815;51.618;0.336;2022-08-05T04:53:02;2;2;
63662;PMS5003;49815;51.618;0.336;2022-08-05T04:55:27;3;2;
63662;PMS5003;49815;51.618;0.336;2022-08-05T04:57:53;2;2;
63662;PMS5003;49815;51.618;0.336;2022-08-05T05:00:18;5;2;
63662;PMS5003;49815;51.618;0.336;2022-08-05T05:02:43;2;2;
63662;PMS5003;49815;51.618;0.336;2022-08-05T05:05:09;1;1;
63662;PMS5003;49815;51.618;0.336;2022-08-05T05:07:34;2;2;
63662;PMS5003;49815;51.618;0.336;2022-08-05T05:09:59;2;0;
63662;PMS5003;49815;51.618;0.336;2022-08-05T05:12:25;2;2;
63662;PMS5003;49815;51.618;0.336;2022-08-05T05:14:50;2;2;
63662;PMS5003;49815;51.618;0.336;2022-08-05T05:17:16;2;2;
63662;PMS5003;49815;51.618;0.336;2022-08-05T05:19:41;2;2;
63662;PMS5003;49815;51.618;0.336;2022-08-05T05:22:06;2;2;
63662;PMS5003;49815;51.618;0.336;2022-08-05T05:24:32;1;1;
63662;PMS5003;49815;51.618;0.336;2022-08-05T05:26:57;2;2;
63662;PMS5003;49815;51.618;0.336;2022-08-05T05:29:22;2;2;
63662;PMS5003;49815;51.618;0.336;2022-08-05T05:31:48;1;1;
63662;PMS5003;49815;51.618;0.336;2022-08-05T05:34:13;0;0;
63662;PMS5003;49815;51.618;0.336;2022-08-05T05:36:39;2;2;
63662;PMS5003;49815;51.618;0.336;2022-08-05T05:39:04;3;2;
63662;PMS5003;49815;51.618;0.336;2022-08-05T05:41:29;1;1;
63662;PMS5003;49815;51.618;0.336;2022-08-05T05:43:55;2;2;
63662;PMS5003;49815;51.618;0.336;2022-08-05T05:46:20;2;1;
63662;PMS5003;49815;51.618;0.336;2022-08-05T05:48:45;3;2;
63662;PMS5003;49815;51.618;0.336;2022-08-05T05:51:16;1;1;
63662;PMS5003;49815;51.618;0.336;2022-08-05T05:53:36;3;2;
63662;PMS5003;49815;51.618;0.336;2022-08-05T05:56:02;2;2;
63662;PMS5003;49815;51.618;0.336;2022-08-05T05:58:27;2;2;
63662;PMS5003;49815;51.618;0.336;2022-08-05T06:00:52;1;1;
63662;PMS5003;49815;51.618;0.336;2022-08-05T06:03:17;2;2;
63662;PMS5003;49815;51.618;0.336;2022-08-05T06:05:43;1;1;
63662;PMS5003;49815;51.618;0.336;2022-08-05T06:08:08;3;1;
63662;PMS5003;49815;51.618;0.336;2022-08-05T06:10:33;1;1;
63662;PMS5003;49815;51.618;0.336;2022-08-05T06:12:59;2;2;
63662;PMS5003;49815;51.618;0.336;2022-08-05T06:15:24;1;1;
63662;PMS5003;49815;51.618;0.336;2022-08-05T06:17:50;2;1;
63662;PMS5003;49815;51.618;0.336;2022-08-05T06:20:15;2;2;
63662;PMS5003;49815;51.618;0.336;2022-08-05T06:22:40;0;0;
63662;PMS5003;49815;51.618;0.336;2022-08-05T06:25:06;0;0;
63662;PMS5003;49815;51.618;0.336;2022-08-05T06:27:31;0;0;
63662;PMS5003;49815;51.618;0.336;2022-08-05T06:29:56;3;3;
63662;PMS5003;49815;51.618;0.336;2022-08-05T06:32:21;1;1;
63662;PMS5003;49815;51.618;0.336;2022-08-05T06:34:46;1;1;
63662;PMS5003;49815;51.618;0.336;2022-08-05T06:37:12;3;1;
63662;PMS5003;49815;51.618;0.336;2022-08-05T06:39:36;0;0;
63662;PMS5003;49815;51.618;0.336;2022-08-05T06:42:02;0;0;
63662;PMS5003;49815;51.618;0.336;2022-08-05T06:44:28;1;1;
63662;PMS5003;49815;51.618;0.336;2022-08-05T06:46:54;1;1;
63662;PMS5003;49815;51.618;0.336;2022-08-05T06:49:20;3;3;
63662;PMS5003;49815;51.618;0.336;2022-08-05T06:51:45;0;0;
63662;PMS5003;49815;51.618;0.336;2022-08-05T06:54:11;0;0;
63662;PMS5003;49815;51.618;0.336;2022-08-05T06:56:37;1;1;
63662;PMS5003;49815;51.618;0.336;2022-08-05T06:59:03;0;0;
63662;PMS5003;49815;51.618;0.336;2022-08-05T07:01:28;0;0;
63662;PMS5003;49815;51.618;0.336;2022-08-05T07:03:54;0;0;
63662;PMS5003;49815;51.618;0.336;2022-08-05T07:06:20;1;1;
63662;PMS5003;49815;51.618;0.336;2022-08-05T07:08:46;1;0;
63662;PMS5003;49815;51.618;0.336;2022-08-05T07:11:11;2;2;
63662;PMS5003;49815;51.618;0.336;2022-08-05T07:13:37;2;0;
63662;PMS5003;49815;51.618;0.336;2022-08-05T07:16:03;1;1;
63662;PMS5003;49815;51.618;0.336;2022-08-05T07:18:28;2;0;
63662;PMS5003;49815;51.618;0.336;2022-08-05T07:20:54;2;1;
63662;PMS5003;49815;51.618;0.336;2022-08-05T07:23:20;0;0;
63662;PMS5003;49815;51.618;0.336;2022-08-05T07:25:45;1;1;
63662;PMS5003;49815;51.618;0.336;2022-08-05T07:28:11;1;1;
63662;PMS5003;49815;51.618;0.336;2022-08-05T07:30:37;2;1;
63662;PMS5003;49815;51.618;0.336;2022-08-05T07:33:03;0;0;
63662;PMS5003;49815;51.618;0.336;2022-08-05T07:35:28;0;0;
63662;PMS5003;49815;51.618;0.336;2022-08-05T07:37:54;0;0;
63662;PMS5003;49815;51.618;0.336;2022-08-05T07:40:20;1;1;
63662;PMS5003;49815;51.618;0.336;2022-08-05T07:42:45;1;0;
63662;PMS5003;49815;51.618;0.336;2022-08-05T07:45:10;0;0;
63662;PMS5003;49815;51.618;0.336;2022-08-05T07:47:35;1;1;
63662;PMS5003;49815;51.618;0.336;2022-08-05T07:50:00;0;0;
63662;PMS5003;49815;51.618;0.336;2022-08-05T07:52:25;1;1;
63662;PMS5003;49815;51.618;0.336;2022-08-05T07:54:51;1;1;
63662;PMS5003;49815;51.618;0.336;2022-08-05T07:57:16;2;2;
63662;PMS5003;49815;51.618;0.336;2022-08-05T07:59:41;0;0;
63662;PMS5003;49815;51.618;0.336;2022-08-05T08:02:07;1;1;
63662;PMS5003;49815;51.618;0.336;2022-08-05T08:04:32;0;0;
63662;PMS5003;49815;51.618;0.336;2022-08-05T08:06:57;1;1;
63662;PMS5003;49815;51.618;0.336;2022-08-05T08:09:22;1;1;
63662;PMS5003;49815;51.618;0.336;2022-08-05T08:11:47;0;0;
63662;PMS5003;49815;51.618;0.336;2022-08-05T08:14:12;1;1;
63662;PMS5003;49815;51.618;0.336;2022-08-05T08:16:38;0;0;
63662;PMS5003;49815;51.618;0.336;2022-08-05T08:19:03;1;1;
63662;PMS5003;49815;51.618;0.336;2022-08-05T08:21:28;2;2;
63662;PMS5003;49815;51.618;0.336;2022-08-05T08:23:53;0;0;
63662;PMS5003;49815;51.618;0.336;2022-08-05T08:26:19;1;1;
63662;PMS5003;49815;51.618;0.336;2022-08-05T08:28:44;1;0;
63662;PMS5003;49815;51.618;0.336;2022-08-05T08:31:09;1;1;
63662;PMS5003;49815;51.618;0.336;2022-08-05T08:33:35;1;1;
63662;PMS5003;49815;51.618;0.336;2022-08-05T08:36:00;3;1;
63662;PMS5003;49815;51.618;0.336;2022-08-05T08:38:25;1;1;
63662;PMS5003;49815;51.618;0.336;2022-08-05T08:40:50;3;1;
63662;PMS5003;49815;51.618;0.336;2022-08-05T08:43:16;1;1;
63662;PMS5003;49815;51.618;0.336;2022-08-05T08:45:41;1;1;
63662;PMS5003;49815;51.618;0.336;2022-08-05T08:48:06;1;1;
63662;PMS5003;49815;51.618;0.336;2022-08-05T08:50:31;0;0;
63662;PMS5003;49815;51.618;0.336;2022-08-05T08:52:58;1;1;
63662;PMS5003;49815;51.618;0.336;2022-08-05T08:55:22;2;2;
63662;PMS5003;49815;51.618;0.336;2022-08-05T08:57:47;2;1;
63662;PMS5003;49815;51.618;0.336;2022-08-05T09:00:12;1;1;
63662;PMS5003;49815;51.618;0.336;2022-08-05T09:02:37;2;1;
63662;PMS5003;49815;51.618;0.336;2022-08-05T09:05:03;1;1;
63662;PMS5003;49815;51.618;0.336;2022-08-05T09:07:28;2;1;
63662;PMS5003;49815;51.618;0.336;2022-08-05T09:09:53;3;1;
63662;PMS5003;49815;51.618;0.336;2022-08-05T09:12:18;3;1;
63662;PMS5003;49815;51.618;0.336;2022-08-05T09:14:44;0;0;
63662;PMS5003;49815;51.618;0.336;2022-08-05T09:17:10;1;1;
63662;PMS5003;49815;51.618;0.336;2022-08-05T09:19:34;3;1;
63662;PMS5003;49815;51.618;0.336;2022-08-05T09:22:00;3;1;
63662;PMS5003;49815;51.618;0.336;2022-08-05T09:24:25;0;0;
63662;PMS5003;49815;51.618;0.336;2022-08-05T09:26:51;1;1;
63662;PMS5003;49815;51.618;0.336;2022-08-05T09:29:15;0;0;
63662;PMS5003;49815;51.618;0.336;2022-08-05T09:31:40;1;0;
63662;PMS5003;49815;51.618;0.336;2022-08-05T09:34:07;1;1;
63662;PMS5003;49815;51.618;0.336;2022-08-05T09:36:38;0;0;
63662;PMS5003;49815;51.618;0.336;2022-08-05T09:38:57;2;0;
63662;PMS5003;49815;51.618;0.336;2022-08-05T09:41:21;1;1;
63662;PMS5003;49815;51.618;0.336;2022-08-05T09:43:46;1;1;
63662;PMS5003;49815;51.618;0.336;2022-08-05T09:48:37;0;0;
63662;PMS5003;49815;51.618;0.336;2022-08-05T09:51:03;1;1;
63662;PMS5003;49815;51.618;0.336;2022-08-05T09:53:28;1;1;
63662;PMS5003;49815;51.618;0.336;2022-08-05T09:55:53;0;0;
63662;PMS5003;49815;51.618;0.336;2022-08-05T09:58:18;0;0;
63662;PMS5003;49815;51.618;0.336;2022-08-05T10:03:09;1;1;
63662;PMS5003;49815;51.618;0.336;2022-08-05T10:05:33;0;0;
63662;PMS5003;49815;51.618;0.336;2022-08-05T10:07:59;1;1;
63662;PMS5003;49815;51.618;0.336;2022-08-05T10:10:25;1;1;
63662;PMS5003;49815;51.618;0.336;2022-08-05T10:12:50;0;0;
63662;PMS5003;49815;51.618;0.336;2022-08-05T10:15:19;0;0;
63662;PMS5003;49815;51.618;0.336;2022-08-05T10:17:40;0;0;
63662;PMS5003;49815;51.618;0.336;2022-08-05T10:20:06;2;0;
63662;PMS5003;49815;51.618;0.336;2022-08-05T10:22:30;0;0;
63662;PMS5003;49815;51.618;0.336;2022-08-05T10:24:55;1;0;
63662;PMS5003;49815;51.618;0.336;2022-08-05T10:27:21;1;1;
63662;PMS5003;49815;51.618;0.336;2022-08-05T10:29:46;0;0;
63662;PMS5003;49815;51.618;0.336;2022-08-05T10:32:11;0;0;
63662;PMS5003;49815;51.618;0.336;2022-08-05T10:34:36;1;1;
63662;PMS5003;49815;51.618;0.336;2022-08-05T10:37:01;1;1;
63662;PMS5003;49815;51.618;0.336;2022-08-05T10:39:28;1;0;
63662;PMS5003;49815;51.618;0.336;2022-08-05T10:41:54;1;1;
63662;PMS5003;49815;51.618;0.336;2022-08-05T10:44:17;0;0;
63662;PMS5003;49815;51.618;0.336;2022-08-05T10:46:43;2;0;
63662;PMS5003;49815;51.618;0.336;2022-08-05T10:49:07;1;0;
63662;PMS5003;49815;51.618;0.336;2022-08-05T10:53:58;0;0;
63662;PMS5003;49815;51.618;0.336;2022-08-05T10:56:24;2;1;
63662;PMS5003;49815;51.618;0.336;2022-08-05T10:58:59;0;0;
63662;PMS5003;49815;51.618;0.336;2022-08-05T11:01:13;1;1;
63662;PMS5003;49815;51.618;0.336;2022-08-05T11:06:06;0;0;
63662;PMS5003;49815;51.618;0.336;2022-08-05T11:08:29;0;0;
63662;PMS5003;49815;51.618;0.336;2022-08-05T11:10:54;2;2;
63662;PMS5003;49815;51.618;0.336;2022-08-05T11:15:44;0;0;
63662;PMS5003;49815;51.618;0.336;2022-08-05T11:20:36;0;0;
63662;PMS5003;49815;51.618;0.336;2022-08-05T11:23:23;1;1;
63662;PMS5003;49815;51.618;0.336;2022-08-05T11:25:27;1;1;
63662;PMS5003;49815;51.618;0.336;2022-08-05T11:27:51;2;2;
63662;PMS5003;49815;51.618;0.336;2022-08-05T11:30:16;1;1;
63662;PMS5003;49815;51.618;0.336;2022-08-05T11:32:41;2;2;
63662;PMS5003;49815;51.618;0.336;2022-08-05T11:35:06;3;1;
63662;PMS5003;49815;51.618;0.336;2022-08-05T11:39:56;1;1;
63662;PMS5003;49815;51.618;0.336;2022-08-05T11:42:22;0;0;
63662;PMS5003;49815;51.618;0.336;2022-08-05T11:44:46;2;1;
63662;PMS5003;49815;51.618;0.336;2022-08-05T11:47:12;1;1;
63662;PMS5003;49815;51.618;0.336;2022-08-05T11:49:37;3;1;
63662;PMS5003;49815;51.618;0.336;2022-08-05T11:52:02;1;1;
63662;PMS5003;49815;51.618;0.336;2022-08-05T11:54:27;1;1;
63662;PMS5003;49815;51.618;0.336;2022-08-05T11:56:52;1;1;
63662;PMS5003;49815;51.618;0.336;2022-08-05T11:59:18;2;2;
63662;PMS5003;49815;51.618;0.336;2022-08-05T12:04:07;1;1;
63662;PMS5003;49815;51.618;0.336;2022-08-05T12:06:33;3;2;
63662;PMS5003;49815;51.618;0.336;2022-08-05T12:08:58;1;1;
63662;PMS5003;49815;51.618;0.336;2022-08-05T12:11:23;1;1;
63662;PMS5003;49815;51.618;0.336;2022-08-05T12:13:52;3;1;
63662;PMS5003;49815;51.618;0.336;2022-08-05T12:16:16;0;0;
63662;PMS5003;49815;51.618;0.336;2022-08-05T12:18:38;0;0;
63662;PMS5003;49815;51.618;0.336;2022-08-05T12:21:10;0;0;
63662;PMS5003;49815;51.618;0.336;2022-08-05T12:23:29;2;2;
63662;PMS5003;49815;51.618;0.336;2022-08-05T12:25:54;1;1;
63662;PMS5003;49815;51.618;0.336;2022-08-05T12:30:44;1;1;
63662;PMS5003;49815;51.618;0.336;2022-08-05T12:33:10;1;1;
63662;PMS5003;49815;51.618;0.336;2022-08-05T12:35:35;3;1;
63662;PMS5003;49815;51.618;0.336;2022-08-05T12:38:00;2;2;
63662;PMS5003;49815;51.618;0.336;2022-08-05T12:40:26;4;2;
63662;PMS5003;49815;51.618;0.336;2022-08-05T12:42:50;1;1;
63662;PMS5003;49815;51.618;0.336;2022-08-05T12:45:15;1;1;
63662;PMS5003;49815;51.618;0.336;2022-08-05T12:47:40;2;2;
63662;PMS5003;49815;51.618;0.336;2022-08-05T12:52:31;4;2;
63662;PMS5003;49815;51.618;0.336;2022-08-05T12:54:56;3;2;
63662;PMS5003;49815;51.618;0.336;2022-08-05T12:57:21;3;1;
63662;PMS5003;49815;51.618;0.336;2022-08-05T12:59:47;2;2;
63662;PMS5003;49815;51.618;0.336;2022-08-05T13:02:12;2;1;
63662;PMS5003;49815;51.618;0.336;2022-08-05T13:04:38;1;1;
63662;PMS5003;49815;51.618;0.336;2022-08-05T13:07:02;1;1;
63662;PMS5003;49815;51.618;0.336;2022-08-05T13:09:27;1;1;
63662;PMS5003;49815;51.618;0.336;2022-08-05T13:11:56;0;0;
63662;PMS5003;49815;51.618;0.336;2022-08-05T13:14:18;3;2;
63662;PMS5003;49815;51.618;0.336;2022-08-05T13:16:44;2;2;
63662;PMS5003;49815;51.618;0.336;2022-08-05T13:19:09;2;2;
63662;PMS5003;49815;51.618;0.336;2022-08-05T13:21:32;2;2;
63662;PMS5003;49815;51.618;0.336;2022-08-05T13:23:57;2;2;
63662;PMS5003;49815;51.618;0.336;2022-08-05T13:26:22;1;0;
63662;PMS5003;49815;51.618;0.336;2022-08-05T13:28:48;2;2;
63662;PMS5003;49815;51.618;0.336;2022-08-05T13:31:13;1;1;
63662;PMS5003;49815;51.618;0.336;2022-08-05T13:33:38;1;1;
63662;PMS5003;49815;51.618;0.336;2022-08-05T13:36:03;1;1;
63662;PMS5003;49815;51.618;0.336;2022-08-05T13:38:28;1;1;
63662;PMS5003;49815;51.618;0.336;2022-08-05T13:40:53;1;1;
63662;PMS5003;49815;51.618;0.336;2022-08-05T13:43:18;1;0;
63662;PMS5003;49815;51.618;0.336;2022-08-05T13:45:43;1;1;
63662;PMS5003;49815;51.618;0.336;2022-08-05T13:48:09;0;0;
63662;PMS5003;49815;51.618;0.336;2022-08-05T13:50:34;1;1;
63662;PMS5003;49815;51.618;0.336;2022-08-05T13:52:59;1;1;
63662;PMS5003;49815;51.618;0.336;2022-08-05T13:55:24;2;1;
63662;PMS5003;49815;51.618;0.336;2022-08-05T13:57:49;1;1;
63662;PMS5003;49815;51.618;0.336;2022-08-05T14:00:14;1;1;
63662;PMS5003;49815;51.618;0.336;2022-08-05T14:02:39;1;1;
63662;PMS5003;49815;51.618;0.336;2022-08-05T14:05:05;0;0;
63662;PMS5003;49815;51.618;0.336;2022-08-05T14:07:30;0;0;
63662;PMS5003;49815;51.618;0.336;2022-08-05T14:09:55;0;0;
63662;PMS5003;49815;51.618;0.336;2022-08-05T14:12:20;1;1;
63662;PMS5003;49815;51.618;0.336;2022-08-05T14:14:45;1;1;
63662;PMS5003;49815;51.618;0.336;2022-08-05T14:17:10;1;1;
63662;PMS5003;49815;51.618;0.336;2022-08-05T14:19:35;1;1;
63662;PMS5003;49815;51.618;0.336;2022-08-05T14:22:00;1;1;
63662;PMS5003;49815;51.618;0.336;2022-08-05T14:24:26;0;0;
63662;PMS5003;49815;51.618;0.336;2022-08-05T14:26:51;0;0;
63662;PMS5003;49815;51.618;0.336;2022-08-05T14:29:16;1;1;
63662;PMS5003;49815;51.618;0.336;2022-08-05T14:31:41;1;1;
63662;PMS5003;49815;51.618;0.336;2022-08-05T14:34:06;1;1;
63662;PMS5003;49815;51.618;0.336;2022-08-05T14:36:31;0;0;
63662;PMS5003;49815;51.618;0.336;2022-08-05T14:38:57;2;1;
63662;PMS5003;49815;51.618;0.336;2022-08-05T14:41:21;3;1;
63662;PMS5003;49815;51.618;0.336;2022-08-05T14:43:46;1;1;
63662;PMS5003;49815;51.618;0.336;2022-08-05T14:46:12;2;1;
63662;PMS5003;49815;51.618;0.336;2022-08-05T14:48:37;1;1;
63662;PMS5003;49815;51.618;0.336;2022-08-05T14:51:02;0;0;
63662;PMS5003;49815;51.618;0.336;2022-08-05T14:53:27;0;0;
63662;PMS5003;49815;51.618;0.336;2022-08-05T14:55:52;1;1;
63662;PMS5003;49815;51.618;0.336;2022-08-05T14:58:17;2;1;
63662;PMS5003;49815;51.618;0.336;2022-08-05T15:00:43;1;1;
63662;PMS5003;49815;51.618;0.336;2022-08-05T15:03:08;1;1;
63662;PMS5003;49815;51.618;0.336;2022-08-05T15:05:33;0;0;
63662;PMS5003;49815;51.618;0.336;2022-08-05T15:07:58;0;0;
63662;PMS5003;49815;51.618;0.336;2022-08-05T15:10:23;0;0;
63662;PMS5003;49815;51.618;0.336;2022-08-05T15:12:48;1;1;
63662;PMS5003;49815;51.618;0.336;2022-08-05T15:15:13;0;0;
63662;PMS5003;49815;51.618;0.336;2022-08-05T15:17:38;0;0;
63662;PMS5003;49815;51.618;0.336;2022-08-05T15:20:04;1;1;
63662;PMS5003;49815;51.618;0.336;2022-08-05T15:22:29;0;0;
63662;PMS5003;49815;51.618;0.336;2022-08-05T15:24:54;2;2;
63662;PMS5003;49815;51.618;0.336;2022-08-05T15:27:19;0;0;
63662;PMS5003;49815;51.618;0.336;2022-08-05T15:29:44;3;2;
63662;PMS5003;49815;51.618;0.336;2022-08-05T15:32:09;1;1;
63662;PMS5003;49815;51.618;0.336;2022-08-05T15:34:35;0;0;
63662;PMS5003;49815;51.618;0.336;2022-08-05T15:37:00;0;0;
63662;PMS5003;49815;51.618;0.336;2022-08-05T15:39:25;0;0;
63662;PMS5003;49815;51.618;0.336;2022-08-05T15:41:50;2;0;
63662;PMS5003;49815;51.618;0.336;2022-08-05T15:44:15;0;0;
63662;PMS5003;49815;51.618;0.336;2022-08-05T15:46:40;1;0;
63662;PMS5003;49815;51.618;0.336;2022-08-05T15:49:06;1;1;
63662;PMS5003;49815;51.618;0.336;2022-08-05T15:51:31;0;0;
63662;PMS5003;49815;51.618;0.336;2022-08-05T15:53:56;3;0;
63662;PMS5003;49815;51.618;0.336;2022-08-05T15:56:21;0;0;
63662;PMS5003;49815;51.618;0.336;2022-08-05T15:58:46;0;0;
63662;PMS5003;49815;51.618;0.336;2022-08-05T16:01:12;1;1;
63662;PMS5003;49815;51.618;0.336;2022-08-05T16:03:37;0;0;
63662;PMS5003;49815;51.618;0.336;2022-08-05T16:06:02;0;0;
63662;PMS5003;49815;51.618;0.336;2022-08-05T16:08:27;1;1;
63662;PMS5003;49815;51.618;0.336;2022-08-05T16:10:52;1;1;
63662;PMS5003;49815;51.618;0.336;2022-08-05T16:13:17;0;0;
63662;PMS5003;49815;51.618;0.336;2022-08-05T16:15:42;3;1;
63662;PMS5003;49815;51.618;0.336;2022-08-05T16:18:08;0;0;
63662;PMS5003;49815;51.618;0.336;2022-08-05T16:20:33;0;0;
63662;PMS5003;49815;51.618;0.336;2022-08-05T16:22:58;0;0;
63662;PMS5003;49815;51.618;0.336;2022-08-05T16:25:23;0;0;
63662;PMS5003;49815;51.618;0.336;2022-08-05T16:27:48;1;1;
63662;PMS5003;49815;51.618;0.336;2022-08-05T16:30:13;1;1;
63662;PMS5003;49815;51.618;0.336;2022-08-05T16:32:39;0;0;
63662;PMS5003;49815;51.618;0.336;2022-08-05T16:35:04;1;1;
63662;PMS5003;49815;51.618;0.336;2022-08-05T16:37:29;1;1;
63662;PMS5003;49815;51.618;0.336;2022-08-05T16:39:54;1;1;
63662;PMS5003;49815;51.618;0.336;2022-08-05T16:42:19;0;0;
63662;PMS5003;49815;51.618;0.336;2022-08-05T16:44:44;1;1;
63662;PMS5003;49815;51.618;0.336;2022-08-05T16:47:10;1;1;
63662;PMS5003;49815;51.618;0.336;2022-08-05T16:49:35;1;0;
63662;PMS5003;49815;51.618;0.336;2022-08-05T16:52:00;2;0;
63662;PMS5003;49815;51.618;0.336;2022-08-05T16:54:25;1;1;
63662;PMS5003;49815;51.618;0.336;2022-08-05T16:56:50;1;1;
63662;PMS5003;49815;51.618;0.336;2022-08-05T16:59:16;1;1;
63662;PMS5003;49815;51.618;0.336;2022-08-05T17:01:41;2;0;